Página principal
METAR-TAF:

METAR-TAF

Aeroportos :

Atenas, Grécia

Aeroporto Internacional de Atenas

latitude: 37-56N, longitude: 023-56E, altura: 94 m

Observação actual do tempo

O boletim foi feito há 37 minutos, às 22:50 UTC
Vento 3 kt com direcção variável
Temperatura 10°C
Humidade 82%
Pressão 1022 hPa
Visibilidade 10 km ou mais
Poucas nuvensa uma altura de 3000 ft

METAR: LGAV 122250Z VRB03KT 9999 FEW030 10/07 Q1022 NOSIG

Hora: 01:27 (23:27 UTC)

Previsão

O boletim foi feito há 6 horas e 27 minutos, às 17:00 UTC
Previsão válida de 12 às 18 UTC a 13 às 18 UTC
Vento 10 kt de su-sudoeste
Visibilidade 10 km ou mais
Poucas nuvensa uma altura de 3500 ft
Probabilidade 30%
de 13 às 00 UTC a 13 às 04 UTC
Visibilidade: 5000 m
Nuvens dispersasa uma altura de 1200 ft
neblina

TAF: LGAV 121700Z 1218/1318 20010KT 9999 FEW035 PROB30 1300/1304 5000 BR SCT012

Observações e previsões do tempo de mais de 4000 aeroportos (mensagens METAR e TAF).

As estações disponíveis são os pontos amarelos e vermelhos sobre o mapa.

Mova o rato sobre o mapa para ver o nome da estação.

Depois clique no ponto para visualizar as observações e previsões meteorológicas.

Para alterar o mapa : clique nos botões verdes com uma cruz preta para aumentar o zoom; no botão verde com uma pitada de zoom; ou nas setas verdes para mapas adjacentes.


METAR-TAF: